Terminal Aerodrome Forecast
Issued by NWS

Home | Current Version | Previous Version | Text Only | Print | Product List | Glossary Off
Versions: 1 2 3 4 5 6 7 8 9 10 11 12 13 14 15 16

891
FTUS43 KBIS 192321
TAFDIK
TAF
KDIK 192321Z 2000/2024 22006KT P6SM FEW100 FEW250
     FM200200 13007KT P6SM SKC
     FM201500 16011KT P6SM FEW110 FEW250
     FM201900 16017G25KT P6SM FEW130 FEW250
     FM202300 16015G25KT P6SM VCSH BKN120=

USA.gov is the U.S. government's official web portal to all federal, state and local government web resources and services.